Time,TemperatureF,DewpointF,PressureIn,WindDirection,WindDirectionDegrees,WindSpeedMPH,WindSpeedGustMPH,Humidity,HourlyPrecipIn,Conditions,Clouds,dailyrainin,SoftwareType,DateUTC
2013-04-09 00:02:00,58.0,31.0,29.81,ESE,121,0.0,5.0,35,0.00,,,0.00,,2013-04-09 07:02:00,
2013-04-09 00:12:00,58.0,31.0,29.81,ESE,121,0.0,5.0,35,0.00,,,0.00,,2013-04-09 07:12:00,
2013-04-09 00:22:00,58.0,30.0,29.80,South,180,0.0,11.0,34,0.00,,,0.00,,2013-04-09 07:22:00,
2013-04-09 00:32:00,58.0,30.0,29.81,NNW,334,0.0,7.0,34,0.00,,,0.00,,2013-04-09 07:32:00,
2013-04-09 00:42:00,58.0,30.0,29.81,NNW,334,0.0,7.0,34,0.00,,,0.00,,2013-04-09 07:42:00,
2013-04-09 00:52:00,57.0,29.0,29.81,WNW,291,0.0,5.0,34,0.00,,,0.00,,2013-04-09 07:52:00,
2013-04-09 01:02:00,57.0,28.0,29.82,WSW,256,0.0,2.0,33,0.00,,,0.00,,2013-04-09 08:02:00,
2013-04-09 01:11:00,57.0,28.0,29.82,WSW,256,0.0,2.0,33,0.00,,,0.00,,2013-04-09 08:11:00,
2013-04-09 01:22:00,58.0,28.0,29.83,West,271,4.0,11.0,32,0.00,,,0.00,,2013-04-09 08:22:00,
2013-04-09 01:32:00,58.0,28.0,29.83,South,179,0.0,14.0,32,0.00,,,0.00,,2013-04-09 08:32:00,
2013-04-09 01:42:00,58.0,28.0,29.83,South,179,0.0,14.0,32,0.00,,,0.00,,2013-04-09 08:42:00,
2013-04-09 01:52:00,58.0,28.0,29.82,WNW,287,2.0,4.0,32,0.00,,,0.00,,2013-04-09 08:52:00,
2013-04-09 02:01:00,58.0,28.0,29.82,SW,232,0.0,14.0,32,0.00,,,0.00,,2013-04-09 09:01:00,
2013-04-09 02:12:00,58.0,28.0,29.82,SW,232,0.0,14.0,32,0.00,,,0.00,,2013-04-09 09:12:00,
2013-04-09 02:22:00,59.0,28.0,29.82,WNW,288,2.0,14.0,31,0.00,,,0.00,,2013-04-09 09:22:00,
2013-04-09 02:32:00,58.0,28.0,29.82,WSW,256,2.0,5.0,32,0.00,,,0.00,,2013-04-09 09:32:00,
2013-04-09 02:43:00,58.0,28.0,29.82,WSW,256,2.0,5.0,32,0.00,,,0.00,,2013-04-09 09:43:00,
2013-04-09 02:52:00,58.0,28.0,29.82,West,267,1.0,10.0,32,0.00,,,0.00,,2013-04-09 09:52:00,
2013-04-09 03:02:00,57.0,29.0,29.82,SSW,196,0.0,4.0,34,0.00,,,0.00,,2013-04-09 10:02:00,
2013-04-09 03:23:00,55.0,28.0,29.82,WSW,242,1.0,6.0,35,0.00,,,0.00,,2013-04-09 10:23:00,
2013-04-09 03:32:00,56.0,29.0,29.81,WSW,258,2.0,6.0,35,0.00,,,0.00,,2013-04-09 10:32:00,
2013-04-09 03:52:00,56.0,29.0,29.81,WSW,238,0.0,7.0,36,0.00,,,0.00,,2013-04-09 10:52:00,
2013-04-09 04:02:00,55.0,28.0,29.81,WSW,244,0.0,5.0,35,0.00,,,0.00,,2013-04-09 11:02:00,
2013-04-09 04:12:00,55.0,28.0,29.81,WSW,244,0.0,5.0,35,0.00,,,0.00,,2013-04-09 11:12:00,
2013-04-09 04:22:00,55.0,27.0,29.82,West,275,2.0,4.0,34,0.00,,,0.00,,2013-04-09 11:22:00,
2013-04-09 04:32:00,55.0,26.0,29.82,West,265,1.0,4.0,33,0.00,,,0.00,,2013-04-09 11:32:00,
2013-04-09 04:52:00,55.0,28.0,29.83,WNW,294,0.0,3.0,35,0.00,,,0.00,,2013-04-09 11:52:00,
2013-04-09 05:01:00,54.0,27.0,29.83,WNW,294,0.0,0.0,35,0.00,,,0.00,,2013-04-09 12:01:00,
2013-04-09 05:22:00,53.0,28.0,29.83,WNW,292,0.0,0.0,38,0.00,,,0.00,,2013-04-09 12:22:00,
2013-04-09 05:32:00,53.0,29.0,29.83,WNW,292,0.0,0.0,40,0.00,,,0.00,,2013-04-09 12:32:00,
2013-04-09 05:53:00,53.0,27.0,29.85,WNW,295,0.0,0.0,37,0.00,,,0.00,,2013-04-09 12:53:00,
2013-04-09 06:02:00,53.0,27.0,29.85,WNW,298,0.0,1.0,37,0.00,,,0.00,,2013-04-09 13:02:00,
2013-04-09 06:22:00,52.0,27.0,29.85,NE,46,0.0,0.0,38,0.00,,,0.00,,2013-04-09 13:22:00,
2013-04-09 06:32:00,53.0,28.0,29.85,NE,45,0.0,0.0,38,0.00,,,0.00,,2013-04-09 13:32:00,
2013-04-09 06:53:00,51.0,28.0,29.86,NE,44,0.0,3.0,41,0.00,,,0.00,,2013-04-09 13:53:00,
2013-04-09 07:02:00,51.0,28.0,29.87,NE,44,2.0,4.0,41,0.00,,,0.00,,2013-04-09 14:02:00,
2013-04-09 07:21:00,51.0,30.0,29.88,NNW,330,0.0,6.0,44,0.00,,,0.00,,2013-04-09 14:21:00,
2013-04-09 07:31:00,51.0,28.0,29.89,NNW,330,0.0,0.0,41,0.00,,,0.00,,2013-04-09 14:31:00,
2013-04-09 07:52:00,53.0,30.0,29.90,NE,52,2.0,7.0,41,0.00,,,0.00,,2013-04-09 14:52:00,
2013-04-09 08:01:00,54.0,31.0,29.90,NE,49,0.0,2.0,41,0.00,,,0.00,,2013-04-09 15:01:00,
2013-04-09 08:22:00,56.0,31.0,29.91,NE,42,0.0,1.0,39,0.00,,,0.00,,2013-04-09 15:22:00,
2013-04-09 08:32:00,57.0,30.0,29.92,NE,42,0.0,1.0,36,0.00,,,0.00,,2013-04-09 15:32:00,
2013-04-09 08:53:00,59.0,31.0,29.92,NE,42,0.0,0.0,34,0.00,,,0.00,,2013-04-09 15:53:00,
2013-04-09 09:02:00,60.0,32.0,29.93,NE,34,0.0,1.0,34,0.00,,,0.00,,2013-04-09 16:02:00,
2013-04-09 09:32:00,62.0,29.0,29.93,West,260,0.0,12.0,28,0.00,,,0.00,,2013-04-09 16:32:00,
2013-04-09 09:41:00,62.0,29.0,29.93,West,260,0.0,12.0,28,0.00,,,0.00,,2013-04-09 16:41:00,
2013-04-09 09:53:00,64.0,27.0,29.93,West,277,1.0,11.0,25,0.00,,,0.00,,2013-04-09 16:53:00,
2013-04-09 10:02:00,64.0,26.0,29.93,NW,304,5.0,9.0,24,0.00,,,0.00,,2013-04-09 17:02:00,
2013-04-09 10:12:00,64.0,26.0,29.93,NW,304,5.0,9.0,24,0.00,,,0.00,,2013-04-09 17:12:00,
2013-04-09 10:22:00,64.0,25.0,29.93,WNW,301,4.0,13.0,23,0.00,,,0.00,,2013-04-09 17:22:00,
2013-04-09 10:32:00,65.0,26.0,29.93,NNW,344,4.0,14.0,23,0.00,,,0.00,,2013-04-09 17:32:00,
2013-04-09 10:42:00,65.0,26.0,29.93,NNW,344,4.0,14.0,23,0.00,,,0.00,,2013-04-09 17:42:00,
2013-04-09 10:53:00,66.0,26.0,29.93,NW,309,4.0,14.0,22,0.00,,,0.00,,2013-04-09 17:53:00,
2013-04-09 11:01:00,66.0,27.0,29.93,North,5,2.0,17.0,23,0.00,,,0.00,,2013-04-09 18:01:00,
2013-04-09 11:12:00,66.0,27.0,29.93,North,5,2.0,17.0,23,0.00,,,0.00,,2013-04-09 18:12:00,
2013-04-09 11:22:00,67.0,25.0,29.93,NNW,330,4.0,15.0,20,0.00,,,0.00,,2013-04-09 18:22:00,
2013-04-09 11:32:00,68.0,25.0,29.93,NW,326,6.0,16.0,20,0.00,,,0.00,,2013-04-09 18:32:00,
2013-04-09 11:42:00,68.0,25.0,29.93,NW,326,6.0,16.0,20,0.00,,,0.00,,2013-04-09 18:42:00,
2013-04-09 11:53:00,68.0,23.0,29.93,NNW,346,4.0,16.0,18,0.00,,,0.00,,2013-04-09 18:53:00,
2013-04-09 12:02:00,68.0,23.0,29.93,NNW,346,4.0,16.0,18,0.00,,,0.00,,2013-04-09 19:02:00,
2013-04-09 12:11:00,68.0,23.0,29.93,NNW,346,4.0,16.0,18,0.00,,,0.00,,2013-04-09 19:11:00,
2013-04-09 12:22:00,68.0,23.0,29.93,NNW,346,4.0,16.0,18,0.00,,,0.00,,2013-04-09 19:22:00,
2013-04-09 12:42:00,69.0,26.0,29.92,West,271,2.0,18.0,20,0.00,,,0.00,,2013-04-09 19:42:00,
2013-04-09 12:52:00,71.0,25.0,29.90,WNW,288,2.0,15.0,18,0.00,,,0.00,,2013-04-09 19:52:00,
2013-04-09 13:02:00,71.0,24.0,29.89,West,265,1.0,20.0,17,0.00,,,0.00,,2013-04-09 20:02:00,
2013-04-09 13:11:00,71.0,24.0,29.89,West,265,1.0,20.0,17,0.00,,,0.00,,2013-04-09 20:11:00,
2013-04-09 13:22:00,73.0,24.0,29.88,WNW,298,6.0,17.0,16,0.00,,,0.00,,2013-04-09 20:22:00,
2013-04-09 13:32:00,72.0,22.0,29.88,West,271,7.0,18.0,15,0.00,,,0.00,,2013-04-09 20:32:00,
2013-04-09 13:42:00,72.0,22.0,29.88,West,271,7.0,18.0,15,0.00,,,0.00,,2013-04-09 20:42:00,
2013-04-09 13:52:00,72.0,22.0,29.88,West,277,9.0,24.0,15,0.00,,,0.00,,2013-04-09 20:52:00,
2013-04-09 14:01:00,72.0,32.0,29.87,South,178,3.0,16.0,23,0.00,,,0.00,,2013-04-09 21:01:00,
2013-04-09 14:12:00,72.0,32.0,29.87,South,178,3.0,16.0,23,0.00,,,0.00,,2013-04-09 21:12:00,
2013-04-09 14:22:00,72.0,32.0,29.87,South,178,3.0,16.0,23,0.00,,,0.00,,2013-04-09 21:22:00,
2013-04-09 14:32:00,71.0,33.0,29.88,SW,236,0.0,17.0,25,0.00,,,0.00,,2013-04-09 21:32:00,
2013-04-09 14:42:00,71.0,33.0,29.88,SW,236,0.0,17.0,25,0.00,,,0.00,,2013-04-09 21:42:00,
2013-04-09 14:53:00,70.0,30.0,29.88,WNW,296,3.0,13.0,23,0.00,,,0.00,,2013-04-09 21:53:00,
2013-04-09 15:02:00,72.0,32.0,29.88,SW,217,2.0,16.0,23,0.00,,,0.00,,2013-04-09 22:02:00,
2013-04-09 15:12:00,71.0,30.0,29.88,SSW,207,1.0,10.0,22,0.00,,,0.00,,2013-04-09 22:12:00,
2013-04-09 15:22:00,71.0,30.0,29.88,SSW,207,1.0,10.0,22,0.00,,,0.00,,2013-04-09 22:22:00,
2013-04-09 15:32:00,72.0,31.0,29.87,SW,221,2.0,10.0,22,0.00,,,0.00,,2013-04-09 22:32:00,
2013-04-09 15:42:00,72.0,31.0,29.87,SW,221,2.0,10.0,22,0.00,,,0.00,,2013-04-09 22:42:00,
2013-04-09 15:53:00,70.0,32.0,29.86,SW,227,5.0,16.0,24,0.00,,,0.00,,2013-04-09 22:53:00,
2013-04-09 16:02:00,70.0,32.0,29.86,West,263,4.0,14.0,24,0.00,,,0.00,,2013-04-09 23:02:00,
2013-04-09 16:12:00,70.0,33.0,29.85,SSE,160,0.0,14.0,25,0.00,,,0.00,,2013-04-09 23:12:00,
2013-04-09 16:22:00,70.0,33.0,29.85,SSE,160,0.0,14.0,25,0.00,,,0.00,,2013-04-09 23:22:00,
2013-04-09 16:32:00,71.0,33.0,29.85,WSW,240,2.0,13.0,25,0.00,,,0.00,,2013-04-09 23:32:00,
2013-04-09 16:42:00,71.0,33.0,29.85,WSW,240,2.0,13.0,25,0.00,,,0.00,,2013-04-09 23:42:00,
2013-04-09 16:52:00,71.0,34.0,29.85,East,101,0.0,6.0,26,0.00,,,0.00,,2013-04-09 23:52:00,
2013-04-09 17:02:00,71.0,34.0,29.85,East,101,0.0,6.0,26,0.00,,,0.00,,2013-04-10 00:02:00,
2013-04-09 17:22:00,72.0,29.0,29.85,ESE,107,1.0,4.0,20,0.00,,,0.00,,2013-04-10 00:22:00,
2013-04-09 17:32:00,73.0,31.0,29.85,WNW,302,3.0,9.0,21,0.00,,,0.00,,2013-04-10 00:32:00,
2013-04-09 17:41:00,73.0,31.0,29.85,WNW,302,3.0,9.0,21,0.00,,,0.00,,2013-04-10 00:41:00,
2013-04-09 17:52:00,74.0,22.0,29.85,WSW,250,2.0,13.0,14,0.00,,,0.00,,2013-04-10 00:52:00,
2013-04-09 18:01:00,74.0,22.0,29.86,NW,321,3.0,15.0,14,0.00,,,0.00,,2013-04-10 01:01:00,
2013-04-09 18:11:00,73.0,24.0,29.86,WNW,288,3.0,7.0,16,0.00,,,0.00,,2013-04-10 01:11:00,
2013-04-09 18:22:00,73.0,24.0,29.86,WNW,288,3.0,7.0,16,0.00,,,0.00,,2013-04-10 01:22:00,
2013-04-09 18:31:00,72.0,22.0,29.86,WNW,294,3.0,11.0,15,0.00,,,0.00,,2013-04-10 01:31:00,
2013-04-09 18:52:00,72.0,25.0,29.87,North,349,1.0,11.0,17,0.00,,,0.00,,2013-04-10 01:52:00,
2013-04-09 19:01:00,72.0,23.0,29.87,West,273,1.0,4.0,16,0.00,,,0.00,,2013-04-10 02:01:00,
2013-04-09 19:11:00,72.0,23.0,29.87,West,273,1.0,4.0,16,0.00,,,0.00,,2013-04-10 02:11:00,
2013-04-09 19:22:00,67.0,35.0,29.88,SW,226,0.0,0.0,30,0.00,,,0.00,,2013-04-10 02:22:00,
2013-04-09 19:32:00,66.0,35.0,29.88,SW,233,0.0,0.0,32,0.00,,,0.00,,2013-04-10 02:32:00,
2013-04-09 19:42:00,66.0,35.0,29.88,SW,233,0.0,0.0,32,0.00,,,0.00,,2013-04-10 02:42:00,
2013-04-09 19:52:00,65.0,36.0,29.89,SW,233,0.0,0.0,34,0.00,,,0.00,,2013-04-10 02:52:00,
2013-04-09 20:01:00,64.0,33.0,29.89,SW,233,0.0,0.0,31,0.00,,,0.00,,2013-04-10 03:01:00,
2013-04-09 20:12:00,64.0,33.0,29.89,SW,233,0.0,0.0,31,0.00,,,0.00,,2013-04-10 03:12:00,
2013-04-09 20:22:00,63.0,33.0,29.91,SW,233,0.0,0.0,32,0.00,,,0.00,,2013-04-10 03:22:00,
2013-04-09 20:32:00,63.0,33.0,29.91,SW,227,0.0,0.0,32,0.00,,,0.00,,2013-04-10 03:32:00,
2013-04-09 20:43:00,63.0,33.0,29.91,SW,227,0.0,0.0,32,0.00,,,0.00,,2013-04-10 03:43:00,
2013-04-09 20:52:00,65.0,29.0,29.93,SW,221,0.0,2.0,26,0.00,,,0.00,,2013-04-10 03:52:00,
2013-04-09 21:02:00,63.0,26.0,29.93,SW,225,0.0,1.0,24,0.00,,,0.00,,2013-04-10 04:02:00,
2013-04-09 21:12:00,63.0,26.0,29.93,SW,225,0.0,1.0,24,0.00,,,0.00,,2013-04-10 04:12:00,
2013-04-09 21:22:00,65.0,23.0,29.94,WNW,283,1.0,10.0,20,0.00,,,0.00,,2013-04-10 04:22:00,
2013-04-09 21:32:00,65.0,23.0,29.95,West,270,0.0,2.0,20,0.00,,,0.00,,2013-04-10 04:32:00,
2013-04-09 21:53:00,62.0,30.0,29.96,NE,40,1.0,3.0,30,0.00,,,0.00,,2013-04-10 04:53:00,
2013-04-09 22:02:00,63.0,29.0,29.96,NNE,19,1.0,6.0,28,0.00,,,0.00,,2013-04-10 05:02:00,
2013-04-09 22:12:00,63.0,29.0,29.96,NNE,19,1.0,6.0,28,0.00,,,0.00,,2013-04-10 05:12:00,
2013-04-09 22:32:00,62.0,27.0,29.97,NE,44,2.0,11.0,26,0.00,,,0.00,,2013-04-10 05:32:00,
2013-04-09 22:53:00,63.0,29.0,29.96,NNW,341,5.0,17.0,27,0.00,,,0.00,,2013-04-10 05:53:00,
2013-04-09 23:02:00,63.0,29.0,29.96,NW,320,6.0,17.0,28,0.00,,,0.00,,2013-04-10 06:02:00,
2013-04-09 23:12:00,63.0,28.0,29.98,SSE,165,1.0,3.0,26,0.00,,,0.00,,2013-04-10 06:12:00,
2013-04-09 23:32:00,64.0,29.0,29.98,West,277,1.0,3.0,27,0.00,,,0.00,,2013-04-10 06:32:00,
2013-04-09 23:52:00,64.0,28.0,29.99,WSW,256,0.0,2.0,26,0.00,,,0.00,,2013-04-10 06:52:00,